Time;durP1;ratioP1;P1;durP2;ratioP2;P2;SDS_P1;SDS_P2;PMS_P1;PMS_P2;Temp;Humidity;BMP_temperature;BMP_pressure;BME280_temperature;BME280_humidity;BME280_pressure;Samples;Min_cycle;Max_cycle;Signal;HPM_P1;HPM_P2
2022/10/27 00:00:35;;;;;;;24.63;9.48;;;;;;;14.86;100.00;101850.84;5078591;28;20048;-74
2022/10/27 00:03:02;;;;;;;23.23;9.55;;;;;;;14.90;100.00;101850.84;5061915;28;20087;-75
2022/10/27 00:05:28;;;;;;;21.52;9.25;;;;;;;14.91;100.00;101850.44;5077609;28;20290;-75
2022/10/27 00:07:56;;;;;;;23.05;9.30;;;;;;;14.92;100.00;101849.22;5076742;27;20809;-74
2022/10/27 00:10:22;;;;;;;26.75;9.90;;;;;;;14.91;100.00;101856.00;5084334;28;20052;-74
2022/10/27 00:12:49;;;;;;;22.35;9.63;;;;;;;14.92;100.00;101851.25;5082435;28;20052;-74
2022/10/27 00:15:16;;;;;;;28.45;10.40;;;;;;;14.96;100.00;101855.59;5077840;28;20052;-74
2022/10/27 00:17:43;;;;;;;24.05;9.95;;;;;;;14.96;100.00;101855.59;5074187;28;20039;-75
2022/10/27 00:20:10;;;;;;;24.38;10.27;;;;;;;15.00;100.00;101855.59;5078365;28;20048;-75
2022/10/27 00:22:36;;;;;;;22.33;9.65;;;;;;;15.02;100.00;101859.56;5081602;28;20054;-75
2022/10/27 00:25:04;;;;;;;22.77;9.95;;;;;;;15.04;100.00;101857.19;5072443;27;20565;-74
2022/10/27 00:27:30;;;;;;;22.42;9.75;;;;;;;15.08;100.00;101860.78;5083503;28;20044;-75
2022/10/27 00:29:57;;;;;;;22.80;9.55;;;;;;;15.11;100.00;101861.94;5081134;28;21617;-74
2022/10/27 00:32:23;;;;;;;23.50;8.73;;;;;;;15.14;100.00;101866.72;5082330;28;20929;-74
2022/10/27 00:34:50;;;;;;;22.55;8.88;;;;;;;15.16;100.00;101862.34;5075101;28;20094;-75
2022/10/27 00:37:16;;;;;;;25.25;8.02;;;;;;;15.17;100.00;101858.38;5077124;28;20052;-76
2022/10/27 00:39:43;;;;;;;16.90;7.35;;;;;;;15.20;100.00;101854.78;5065265;28;20043;-76
2022/10/27 00:42:13;;;;;;;21.17;7.18;;;;;;;15.23;100.00;101861.56;5081928;28;20048;-76
2022/10/27 00:44:46;;;;;;;17.55;6.60;;;;;;;15.23;100.00;101861.56;5089227;28;20065;-76
2022/10/27 00:47:30;;;;;;;18.50;7.55;;;;;;;15.23;100.00;101870.69;5080886;28;20845;-76
2022/10/27 00:50:15;;;;;;;22.23;6.95;;;;;;;15.24;100.00;101874.28;5070667;28;20052;-75
2022/10/27 00:52:45;;;;;;;20.02;7.65;;;;;;;15.20;100.00;101871.53;5082415;28;20044;-73
2022/10/27 00:55:25;;;;;;;20.27;6.57;;;;;;;15.19;100.00;101864.34;5058898;28;20100;-76
2022/10/27 00:57:55;;;;;;;18.52;6.25;;;;;;;15.21;100.00;101863.94;5073089;28;20611;-76
2022/10/27 01:00:22;;;;;;;17.80;6.83;;;;;;;15.25;100.00;101868.31;5085755;28;20058;-75
2022/10/27 01:02:49;;;;;;;13.80;5.55;;;;;;;15.27;100.00;101871.50;5086451;27;20309;-76
2022/10/27 01:05:21;;;;;;;16.90;5.75;;;;;;;15.31;100.00;101865.91;5086100;27;20063;-76
2022/10/27 01:07:50;;;;;;;21.25;5.72;;;;;;;15.30;100.00;101867.88;5081171;28;20043;-74
2022/10/27 01:10:17;;;;;;;14.40;5.40;;;;;;;15.32;100.00;101868.28;5083838;27;20056;-74
2022/10/27 01:12:45;;;;;;;16.85;5.07;;;;;;;15.34;100.00;101879.84;5063556;28;20043;-74
2022/10/27 01:15:13;;;;;;;17.13;5.38;;;;;;;15.34;100.00;101877.06;5081381;28;20093;-73
2022/10/27 01:17:57;;;;;;;13.77;4.88;;;;;;;15.35;100.00;101878.66;5062454;28;20058;-75
2022/10/27 01:20:33;;;;;;;14.75;5.65;;;;;;;15.35;100.00;101875.84;5079564;28;20132;-76
2022/10/27 01:23:29;;;;;;;13.40;5.13;;;;;;;15.35;100.00;101875.84;5076546;28;20109;-75
2022/10/27 01:26:32;;;;;;;20.00;4.85;;;;;;;15.36;100.00;101883.03;5083168;28;20047;-74
2022/10/27 01:29:27;;;;;;;14.70;4.93;;;;;;;15.38;100.00;101877.88;5081079;28;20214;-75
2022/10/27 01:32:08;;;;;;;14.55;4.65;;;;;;;15.37;100.00;101876.28;5084444;28;20076;-75
2022/10/27 01:34:46;;;;;;;18.23;5.57;;;;;;;15.37;100.00;101881.06;5082683;28;20656;-75
2022/10/27 01:37:33;;;;;;;13.18;4.60;;;;;;;15.35;100.00;101884.22;5083131;28;20075;-75
2022/10/27 01:40:20;;;;;;;17.88;5.07;;;;;;;15.35;100.00;101878.66;5080888;28;20043;-75
2022/10/27 01:42:55;;;;;;;14.63;5.30;;;;;;;15.28;100.00;101870.28;5079153;28;20051;-75
2022/10/27 01:45:26;;;;;;;21.05;5.30;;;;;;;15.33;100.00;101886.59;5077336;28;20081;-75
2022/10/27 01:47:54;;;;;;;15.75;4.90;;;;;;;15.34;100.00;101882.63;5080826;28;20131;-75
2022/10/27 01:50:33;;;;;;;17.35;5.80;;;;;;;15.33;100.00;101880.25;5104057;28;20047;-74
2022/10/27 01:53:16;;;;;;;14.02;4.95;;;;;;;15.30;100.00;101875.47;5097019;28;20476;-74
2022/10/27 01:56:03;;;;;;;13.88;4.68;;;;;;;15.29;100.00;101877.47;5084878;28;20047;-75
2022/10/27 01:58:59;;;;;;;11.75;4.93;;;;;;;15.27;100.00;101882.66;5082829;28;20109;-75
2022/10/27 02:02:08;;;;;;;12.68;4.90;;;;;;;15.26;100.00;101881.03;5104697;28;20131;-75
2022/10/27 02:04:56;;;;;;;12.95;4.43;;;;;;;15.26;100.00;101883.06;5087028;28;20040;-74
2022/10/27 02:07:41;;;;;;;15.15;5.05;;;;;;;15.26;100.00;101875.47;5103183;28;20054;-74
2022/10/27 02:10:10;;;;;;;13.15;4.05;;;;;;;15.27;100.00;101882.66;5075674;28;20096;-74
2022/10/27 02:12:39;;;;;;;13.18;4.20;;;;;;;15.25;100.00;101885.03;5100624;28;20056;-75
2022/10/27 02:15:29;;;;;;;13.60;4.47;;;;;;;15.26;100.00;101885.84;5091354;28;20059;-75
2022/10/27 02:18:09;;;;;;;12.43;4.70;;;;;;;15.24;100.00;101885.44;5081919;28;20118;-73
2022/10/27 02:20:42;;;;;;;12.05;4.30;;;;;;;15.23;100.00;101887.41;5097333;28;20052;-75
2022/10/27 02:23:14;;;;;;;10.90;4.43;;;;;;;15.19;100.00;101881.06;5104449;28;20050;-74
2022/10/27 02:26:02;;;;;;;13.85;4.75;;;;;;;15.15;100.00;101885.03;5099605;28;20105;-74
2022/10/27 02:28:36;;;;;;;11.70;4.32;;;;;;;15.09;100.00;101881.88;5101160;28;20662;-75
2022/10/27 02:31:13;;;;;;;12.98;4.97;;;;;;;15.05;100.00;101892.22;5090916;28;20066;-74
2022/10/27 02:33:40;;;;;;;14.90;4.75;;;;;;;14.99;100.00;101893.81;5096368;28;20415;-75
2022/10/27 02:36:12;;;;;;;11.27;4.13;;;;;;;14.91;100.00;101895.03;5104674;28;20058;-75
2022/10/27 02:38:38;;;;;;;12.55;4.43;;;;;;;14.91;100.00;101892.25;5095397;28;20039;-75
2022/10/27 02:41:05;;;;;;;12.43;4.97;;;;;;;14.85;100.00;101893.06;5094745;28;20192;-75
2022/10/27 02:43:31;;;;;;;15.85;4.50;;;;;;;14.79;100.00;101895.41;5101650;28;20043;-74
2022/10/27 02:45:58;;;;;;;11.80;4.38;;;;;;;14.76;100.00;101895.44;5091803;28;20113;-75
2022/10/27 02:48:24;;;;;;;11.00;4.22;;;;;;;14.74;100.00;101887.47;5094311;28;20111;-74
2022/10/27 02:50:50;;;;;;;12.90;4.55;;;;;;;14.67;100.00;101876.31;5083901;28;20044;-74
2022/10/27 02:53:17;;;;;;;14.15;5.25;;;;;;;14.69;100.00;101890.66;5100906;28;20043;-73
2022/10/27 02:55:43;;;;;;;13.73;3.88;;;;;;;14.62;100.00;101887.06;5099331;28;20578;-75
2022/10/27 02:58:15;;;;;;;15.80;4.63;;;;;;;14.60;100.00;101890.25;5092091;28;20056;-72
2022/10/27 03:00:42;;;;;;;16.17;5.07;;;;;;;14.57;100.00;101893.81;5089099;28;20047;-75
2022/10/27 03:03:08;;;;;;;15.25;4.32;;;;;;;14.57;100.00;101893.00;5100930;28;20134;-70
2022/10/27 03:05:35;;;;;;;12.75;4.05;;;;;;;14.50;100.00;101876.28;5090338;28;20051;-76
2022/10/27 03:08:02;;;;;;;15.20;4.05;;;;;;;14.47;100.00;101877.88;5087730;28;20458;-73
2022/10/27 03:10:29;;;;;;;15.35;4.13;;;;;;;14.43;100.00;101879.88;5095831;28;20050;-73
2022/10/27 03:12:55;;;;;;;12.27;4.32;;;;;;;14.42;100.00;101880.28;5096473;28;20047;-73
2022/10/27 03:15:23;;;;;;;17.60;4.55;;;;;;;14.36;100.00;101879.06;5099030;28;20628;-72
2022/10/27 03:17:49;;;;;;;16.92;4.85;;;;;;;14.29;100.00;101888.22;5097115;28;20569;-72
2022/10/27 03:20:16;;;;;;;12.82;4.57;;;;;;;14.26;100.00;101893.75;5092813;28;20059;-72
2022/10/27 03:22:42;;;;;;;13.30;5.38;;;;;;;14.22;100.00;101882.63;5098065;28;20048;-72
2022/10/27 03:25:11;;;;;;;13.52;4.45;;;;;;;14.21;100.00;101885.78;5096483;28;20074;-75
2022/10/27 03:27:39;;;;;;;12.23;4.05;;;;;;;14.16;100.00;101875.00;5100507;28;20484;-75
2022/10/27 03:30:07;;;;;;;11.02;4.20;;;;;;;14.14;100.00;101871.84;5099971;28;20044;-74
2022/10/27 03:32:34;;;;;;;11.90;4.75;;;;;;;14.13;100.00;101878.56;5087827;28;20531;-75
2022/10/27 03:35:00;;;;;;;16.88;4.63;;;;;;;14.10;100.00;101877.38;5098559;28;20055;-75
2022/10/27 03:37:30;;;;;;;12.68;4.78;;;;;;;14.12;100.00;101879.78;5104212;28;20036;-76
2022/10/27 03:39:56;;;;;;;13.10;4.70;;;;;;;14.11;100.00;101887.31;5095949;28;20044;-77
2022/10/27 03:42:22;;;;;;;15.80;5.13;;;;;;;14.10;100.00;101880.16;5100024;28;20051;-75
2022/10/27 03:44:49;;;;;;;12.48;5.00;;;;;;;14.07;100.00;101880.94;5105492;28;20039;-76
2022/10/27 03:47:15;;;;;;;17.85;4.90;;;;;;;14.08;100.00;101881.75;5103938;28;20385;-75
2022/10/27 03:49:48;;;;;;;15.65;4.80;;;;;;;14.05;100.00;101877.78;5105964;28;20039;-74
2022/10/27 03:52:14;;;;;;;17.33;4.80;;;;;;;14.07;100.00;101880.94;5091214;28;20109;-74
2022/10/27 03:54:41;;;;;;;13.88;4.97;;;;;;;14.03;100.00;101882.94;5103365;28;20048;-74
2022/10/27 03:57:10;;;;;;;15.98;5.25;;;;;;;14.02;100.00;101872.19;5096364;28;20496;-73
2022/10/27 03:59:37;;;;;;;13.55;4.53;;;;;;;14.02;100.00;101875.78;5100294;28;20055;-74
2022/10/27 04:02:04;;;;;;;13.77;4.50;;;;;;;13.99;100.00;101872.97;5090596;28;20047;-74
2022/10/27 04:04:33;;;;;;;18.27;5.22;;;;;;;13.92;100.00;101870.97;5099679;28;20043;-74
2022/10/27 04:06:59;;;;;;;13.95;5.05;;;;;;;13.91;100.00;101872.13;5105887;28;20630;-75
2022/10/27 04:09:25;;;;;;;13.50;5.03;;;;;;;13.88;100.00;101872.94;5090577;28;20455;-72
2022/10/27 04:11:52;;;;;;;11.60;4.43;;;;;;;13.85;100.00;101878.47;5095142;28;20515;-75
2022/10/27 04:14:18;;;;;;;12.20;4.68;;;;;;;13.82;100.00;101863.38;5100618;28;20481;-75
2022/10/27 04:16:50;;;;;;;17.52;4.50;;;;;;;13.79;100.00;101864.16;5100210;28;20039;-74
2022/10/27 04:19:23;;;;;;;15.93;5.93;;;;;;;13.79;100.00;101857.78;5091813;28;20062;-74
2022/10/27 04:21:49;;;;;;;18.58;4.88;;;;;;;13.77;100.00;101872.09;5103333;28;20052;-72
2022/10/27 04:24:16;;;;;;;20.02;5.25;;;;;;;13.77;100.00;101871.31;5106154;28;20056;-72
2022/10/27 04:26:42;;;;;;;12.43;5.00;;;;;;;13.77;100.00;101865.75;5101272;28;20047;-72
2022/10/27 04:29:09;;;;;;;15.93;4.60;;;;;;;13.71;100.00;101868.13;5102564;28;20415;-74
2022/10/27 04:31:35;;;;;;;18.15;5.32;;;;;;;13.63;100.00;101863.69;5110054;28;20043;-75
2022/10/27 04:34:01;;;;;;;13.45;4.50;;;;;;;13.65;100.00;101869.66;5094032;28;20052;-73
2022/10/27 04:36:29;;;;;;;12.95;4.82;;;;;;;13.59;100.00;101873.19;5104543;28;20051;-74
2022/10/27 04:38:55;;;;;;;12.35;4.40;;;;;;;13.55;100.00;101866.81;5102912;28;20051;-73
2022/10/27 04:41:22;;;;;;;15.15;4.50;;;;;;;13.49;100.00;101871.97;5103878;28;20380;-75
2022/10/27 04:43:49;;;;;;;15.85;4.85;;;;;;;13.43;100.00;101859.59;5103419;28;20097;-75
2022/10/27 04:46:17;;;;;;;13.68;5.13;;;;;;;13.40;100.00;101860.38;5097463;28;20055;-74
2022/10/27 04:48:43;;;;;;;12.70;4.70;;;;;;;13.40;100.00;101854.03;5102848;28;20521;-75
2022/10/27 04:51:10;;;;;;;12.40;4.63;;;;;;;13.40;100.00;101854.81;5107441;28;20079;-74
2022/10/27 04:53:37;;;;;;;15.38;5.00;;;;;;;13.36;100.00;101858.78;5094659;28;20044;-74
2022/10/27 04:56:03;;;;;;;14.80;5.07;;;;;;;13.35;100.00;101863.53;5093384;28;20050;-75
2022/10/27 04:58:30;;;;;;;23.52;7.45;;;;;;;13.34;100.00;101856.41;5101108;28;20061;-75
2022/10/27 05:00:57;;;;;;;16.17;5.88;;;;;;;13.35;100.00;101858.00;5096323;28;20055;-74
2022/10/27 05:03:23;;;;;;;15.60;4.70;;;;;;;13.32;100.00;101855.19;5097855;28;20044;-75
2022/10/27 05:05:50;;;;;;;35.42;11.18;;;;;;;13.31;100.00;101854.41;5095089;28;20048;-75
2022/10/27 05:08:17;;;;;;;16.85;7.47;;;;;;;13.30;100.00;101850.03;5107542;28;20085;-73
2022/10/27 05:10:45;;;;;;;14.88;5.80;;;;;;;13.30;100.00;101855.59;5096810;28;20514;-72
2022/10/27 05:13:11;;;;;;;17.08;6.80;;;;;;;13.30;100.00;101855.59;5100244;28;20067;-75
2022/10/27 05:15:38;;;;;;;18.42;6.72;;;;;;;13.27;100.00;101856.38;5092571;28;20048;-73
2022/10/27 05:18:05;;;;;;;19.63;7.40;;;;;;;13.26;100.00;101856.75;5094769;28;20146;-73
2022/10/27 05:20:35;;;;;;;16.80;6.22;;;;;;;13.24;100.00;101859.91;5104600;28;20533;-76
2022/10/27 05:23:02;;;;;;;16.10;6.80;;;;;;;13.20;100.00;101856.31;5102820;28;20241;-74
2022/10/27 05:25:29;;;;;;;24.08;8.07;;;;;;;13.19;100.00;101862.25;5102039;28;20058;-74
2022/10/27 05:28:10;;;;;;;15.15;5.63;;;;;;;13.14;100.00;101865.41;5097647;28;20043;-73
2022/10/27 05:30:37;;;;;;;18.08;6.45;;;;;;;13.02;100.00;101862.94;5100944;28;20471;-73
2022/10/27 05:33:03;;;;;;;16.95;5.75;;;;;;;12.98;100.00;101852.59;5107670;28;20048;-72
2022/10/27 05:35:30;;;;;;;15.48;5.47;;;;;;;12.97;100.00;101866.84;5099673;28;20043;-76
2022/10/27 05:37:57;;;;;;;19.70;7.18;;;;;;;12.92;100.00;101854.09;5100474;28;20062;-75
2022/10/27 05:40:23;;;;;;;17.15;7.07;;;;;;;12.97;100.00;101864.84;5108360;28;20051;-75
2022/10/27 05:42:52;;;;;;;15.15;5.75;;;;;;;12.97;100.00;101866.84;5104911;28;20659;-75
2022/10/27 05:45:21;;;;;;;20.20;6.43;;;;;;;12.99;100.00;101870.84;5097997;28;20127;-75
2022/10/27 05:47:56;;;;;;;18.08;6.18;;;;;;;12.92;100.00;101856.88;5097925;28;20531;-75
2022/10/27 05:50:22;;;;;;;14.38;5.35;;;;;;;12.96;100.00;101859.69;5100505;28;20044;-73
2022/10/27 05:52:49;;;;;;;22.15;6.20;;;;;;;12.98;100.00;101866.50;5103450;28;20039;-75
2022/10/27 05:55:16;;;;;;;17.13;5.93;;;;;;;12.96;100.00;101868.00;5099686;28;20401;-75
2022/10/27 05:58:04;;;;;;;18.02;6.10;;;;;;;12.91;100.00;101865.59;5100449;28;20121;-75
2022/10/27 06:00:35;;;;;;;17.23;6.28;;;;;;;12.88;100.00;101858.84;5099189;28;20471;-74
2022/10/27 06:03:04;;;;;;;22.20;7.90;;;;;;;12.91;100.00;101869.19;5099550;28;20051;-73
2022/10/27 06:05:37;;;;;;;26.98;8.85;;;;;;;12.92;100.00;101864.41;5099721;28;20096;-73
2022/10/27 06:08:04;;;;;;;22.75;8.40;;;;;;;12.90;100.00;101866.78;5096034;28;20060;-74
2022/10/27 06:10:31;;;;;;;21.65;7.68;;;;;;;12.85;100.00;101869.91;5097018;28;20509;-75
2022/10/27 06:13:02;;;;;;;19.83;8.13;;;;;;;12.88;100.00;101875.50;5102348;28;20039;-74
2022/10/27 06:15:35;;;;;;;23.08;9.30;;;;;;;12.83;100.00;101877.84;5100062;28;20055;-74
2022/10/27 06:18:01;;;;;;;24.10;8.70;;;;;;;12.80;100.00;101867.50;5101007;28;20079;-73
2022/10/27 06:20:28;;;;;;;26.05;9.48;;;;;;;12.85;100.00;101876.28;5101001;28;20051;-74
2022/10/27 06:22:54;;;;;;;17.23;6.05;;;;;;;12.88;100.00;101880.25;5098987;28;20101;-73
2022/10/27 06:25:21;;;;;;;16.98;5.97;;;;;;;12.87;100.00;101876.66;5081515;28;20052;-73
2022/10/27 06:27:47;;;;;;;20.88;6.28;;;;;;;12.88;100.00;101883.03;5109451;28;20105;-74
2022/10/27 06:30:14;;;;;;;16.05;6.18;;;;;;;12.89;100.00;101879.06;5101732;28;20052;-74
2022/10/27 06:32:41;;;;;;;15.23;6.32;;;;;;;12.88;100.00;101883.84;5103954;28;20101;-74
2022/10/27 06:35:09;;;;;;;20.58;6.50;;;;;;;12.86;100.00;101882.63;5108964;28;20541;-74
2022/10/27 06:37:42;;;;;;;18.95;6.72;;;;;;;12.86;100.00;101886.19;5105563;28;20069;-74
2022/10/27 06:40:10;;;;;;;20.50;7.25;;;;;;;12.86;100.00;101882.63;5092477;28;20587;-73
2022/10/27 06:42:37;;;;;;;18.38;6.90;;;;;;;12.83;100.00;101883.41;5113511;27;20782;-74
2022/10/27 06:45:18;;;;;;;18.83;6.75;;;;;;;12.79;100.00;101879.78;5105587;27;20515;-74
2022/10/27 06:47:44;;;;;;;21.33;7.32;;;;;;;12.79;100.00;101882.56;5105821;28;20078;-74
2022/10/27 06:50:11;;;;;;;18.23;6.18;;;;;;;12.83;100.00;101886.19;5094419;27;20456;-75
2022/10/27 06:52:38;;;;;;;17.83;5.38;;;;;;;12.85;100.00;101895.72;5098580;27;20717;-75
2022/10/27 06:55:06;;;;;;;20.75;6.15;;;;;;;12.85;100.00;101887.38;5100764;28;20081;-73
2022/10/27 06:57:42;;;;;;;14.60;6.25;;;;;;;12.83;100.00;101886.19;5091835;28;20101;-73
2022/10/27 07:00:10;;;;;;;16.35;6.60;;;;;;;12.85;100.00;101881.03;5100265;28;20134;-75
2022/10/27 07:02:37;;;;;;;13.63;6.55;;;;;;;12.85;100.00;101886.56;5102558;28;20051;-76
2022/10/27 07:05:05;;;;;;;16.23;6.05;;;;;;;12.90;100.00;101887.03;5103770;28;20047;-73
2022/10/27 07:07:38;;;;;;;23.67;6.95;;;;;;;12.92;100.00;101889.41;5096840;28;20074;-74
2022/10/27 07:10:07;;;;;;;19.45;6.75;;;;;;;12.94;100.00;101890.66;5096699;28;20059;-75
2022/10/27 07:12:33;;;;;;;19.20;6.07;;;;;;;12.97;100.00;101889.06;5100805;28;20070;-75
2022/10/27 07:15:00;;;;;;;18.30;5.75;;;;;;;13.00;100.00;101888.34;5094974;28;20044;-75
2022/10/27 07:17:27;;;;;;;15.50;4.82;;;;;;;13.02;100.00;101891.50;5091582;28;20455;-73
2022/10/27 07:19:53;;;;;;;16.08;5.40;;;;;;;13.07;100.00;101896.72;5087477;28;20511;-73
2022/10/27 07:22:20;;;;;;;13.70;5.22;;;;;;;13.13;100.00;101889.59;5095957;28;20052;-74
2022/10/27 07:24:46;;;;;;;16.75;5.90;;;;;;;13.18;100.00;101888.44;5100363;28;20089;-74
2022/10/27 07:27:13;;;;;;;15.35;5.60;;;;;;;13.23;100.00;101883.31;5094574;28;20048;-76
2022/10/27 07:29:39;;;;;;;14.63;4.85;;;;;;;13.29;100.00;101887.31;5101076;28;20054;-74
2022/10/27 07:32:05;;;;;;;13.70;5.00;;;;;;;13.37;100.00;101880.66;5102934;28;20051;-75
2022/10/27 07:34:32;;;;;;;17.70;5.35;;;;;;;13.47;100.00;101891.03;5103207;28;20058;-75
2022/10/27 07:36:59;;;;;;;17.73;5.00;;;;;;;13.58;100.00;101894.66;5101477;28;20054;-74
2022/10/27 07:39:25;;;;;;;16.58;6.13;;;;;;;13.69;100.00;101886.34;5074486;28;20120;-74
2022/10/27 07:41:52;;;;;;;22.00;6.65;;;;;;;13.82;100.00;101882.84;5078600;28;20055;-74
2022/10/27 07:44:18;;;;;;;17.88;8.02;;;;;;;13.93;100.00;101886.47;5075797;28;20051;-75
2022/10/27 07:46:45;;;;;;;22.52;5.57;;;;;;;14.08;100.00;101882.56;5079994;28;20048;-74
2022/10/27 07:49:11;;;;;;;19.83;5.28;;;;;;;14.23;100.00;101883.41;5074151;28;20101;-75
2022/10/27 07:51:37;;;;;;;16.10;6.22;;;;;;;14.35;100.00;101875.47;5077291;28;20507;-74
2022/10/27 07:54:04;;;;;;;19.65;6.22;;;;;;;14.49;100.00;101871.94;5072506;28;20062;-72
2022/10/27 07:56:31;;;;;;;18.15;6.13;;;;;;;14.63;100.00;101858.81;5077603;28;20052;-72
2022/10/27 07:58:58;;;;;;;19.30;6.00;;;;;;;14.77;100.00;101849.66;5084944;28;20662;-73
2022/10/27 08:01:25;;;;;;;17.00;5.60;;;;;;;14.88;100.00;101848.44;5071565;28;20055;-73
2022/10/27 08:03:52;;;;;;;20.42;7.20;;;;;;;15.05;100.00;101856.00;5050268;28;20454;-73
2022/10/27 08:06:19;;;;;;;15.93;5.07;;;;;;;15.17;100.00;101850.00;5077456;28;20056;-73
2022/10/27 08:08:46;;;;;;;12.95;5.15;;;;;;;15.33;100.00;101847.56;5080402;28;20047;-74
2022/10/27 08:11:12;;;;;;;11.98;4.03;;;;;;;15.49;100.00;101845.16;5087390;28;20061;-72
2022/10/27 08:13:39;;;;;;;15.93;4.85;;;;;;;15.63;100.00;101851.91;5059802;28;20050;-75
2022/10/27 08:16:06;;;;;;;13.25;4.57;;;;;;;15.77;100.00;101849.84;5081886;28;20126;-72
2022/10/27 08:18:32;;;;;;;11.35;3.63;;;;;;;15.90;100.00;101853.78;5058052;28;20047;-72
2022/10/27 08:20:58;;;;;;;16.63;4.32;;;;;;;16.04;100.00;101862.06;5079439;28;20070;-74
2022/10/27 08:23:25;;;;;;;14.90;4.18;;;;;;;16.13;100.00;101856.03;5081972;28;20047;-74
2022/10/27 08:25:52;;;;;;;20.90;4.50;;;;;;;16.33;100.00;101859.91;5087408;28;20048;-71
2022/10/27 08:28:18;;;;;;;16.35;4.10;;;;;;;16.47;100.00;101859.84;5079325;28;20473;-73
2022/10/27 08:30:44;;;;;;;12.90;3.92;;;;;;;16.61;100.00;101852.13;5076099;28;20056;-74
2022/10/27 08:33:18;;;;;;;14.07;4.10;;;;;;;16.79;100.00;101852.00;5085340;28;20051;-73
2022/10/27 08:35:45;;;;;;;12.13;4.20;;;;;;;16.96;100.00;101859.44;5078579;28;20052;-73
2022/10/27 08:38:13;;;;;;;15.40;4.38;;;;;;;17.11;100.00;101858.09;5085122;28;21438;-74
2022/10/27 08:41:08;;;;;;;15.63;3.95;;;;;;;17.28;100.00;101857.91;5080751;28;20256;-74
2022/10/27 08:44:26;;;;;;;11.18;2.88;;;;;;;17.48;100.00;101855.31;5083127;28;20125;-73
2022/10/27 08:46:59;;;;;;;14.10;2.85;;;;;;;17.73;100.00;101851.03;4979855;28;20053;-72
2022/10/27 08:49:40;;;;;;;6.85;2.58;;;;;;;17.99;100.00;101857.91;5068516;28;20792;-72
2022/10/27 08:52:16;;;;;;;12.48;3.03;;;;;;;18.24;100.00;101868.72;5085829;28;20059;-73
2022/10/27 08:54:48;;;;;;;6.55;2.53;;;;;;;18.47;100.00;101852.00;5079104;28;20129;-73
2022/10/27 08:57:23;;;;;;;5.40;2.10;;;;;;;18.81;100.00;101867.47;5084032;28;20056;-72
2022/10/27 08:59:54;;;;;;;6.90;1.90;;;;;;;19.08;100.00;101876.63;5087573;28;20054;-72
2022/10/27 09:02:45;;;;;;;7.18;1.92;;;;;;;19.40;100.00;101862.00;5079512;28;20055;-72
2022/10/27 09:05:40;;;;;;;13.95;3.58;;;;;;;19.61;100.00;101853.19;5082391;28;20896;-73
2022/10/27 09:08:24;;;;;;;5.85;1.60;;;;;;;19.79;100.00;101851.59;5060361;27;20047;-74
2022/10/27 09:11:16;;;;;;;6.88;1.52;;;;;;;19.98;100.00;101853.56;5075383;28;20058;-73
2022/10/27 09:14:01;;;;;;;8.05;1.60;;;;;;;20.25;100.00;101859.06;5086486;27;20059;-72
2022/10/27 09:16:40;;;;;;;2.67;1.33;;;;;;;20.43;100.00;101853.81;5075462;28;20059;-73
2022/10/27 09:19:15;;;;;;;5.07;1.20;;;;;;;20.66;100.00;101850.03;5077590;28;20917;-73
2022/10/27 09:21:43;;;;;;;6.90;1.38;;;;;;;20.86;100.00;101847.91;5074320;28;20419;-73
2022/10/27 09:24:13;;;;;;;7.50;1.50;;;;;;;20.98;100.00;101847.22;5079235;28;20056;-74
2022/10/27 09:26:42;;;;;;;6.00;1.20;;;;;;;21.15;100.00;101845.97;5079679;28;20057;-73
2022/10/27 09:29:15;;;;;;;3.75;1.10;;;;;;;21.36;100.00;101849.00;5081545;28;20947;-74
2022/10/27 09:31:54;;;;;;;5.18;1.70;;;;;;;21.56;100.00;101834.78;5082060;28;20055;-74
2022/10/27 09:34:26;;;;;;;7.40;1.08;;;;;;;21.62;95.91;101844.22;5087110;28;20058;-72
2022/10/27 09:36:53;;;;;;;5.07;1.33;;;;;;;21.76;95.70;101833.38;5066369;28;20128;-73
2022/10/27 09:39:20;;;;;;;3.30;1.42;;;;;;;21.84;92.66;101831.91;5075415;28;20062;-75
2022/10/27 09:41:48;;;;;;;8.95;1.40;;;;;;;21.98;94.08;101827.91;5083486;28;20044;-72
2022/10/27 09:44:22;;;;;;;4.43;1.00;;;;;;;21.99;89.57;101823.84;5083126;28;20591;-73
2022/10/27 09:46:53;;;;;;;1.60;0.80;;;;;;;22.08;87.37;101826.78;5075471;28;20058;-73
2022/10/27 09:49:34;;;;;;;3.50;1.08;;;;;;;22.17;83.92;101826.91;5059492;28;20739;-72
2022/10/27 09:52:08;;;;;;;3.45;1.10;;;;;;;22.24;85.11;101830.28;5078370;28;20706;-74
2022/10/27 09:54:43;;;;;;;4.18;1.17;;;;;;;22.38;86.35;101827.00;5078346;28;20427;-73
2022/10/27 09:57:18;;;;;;;2.50;1.10;;;;;;;22.48;84.41;101819.47;5084453;28;20055;-74
2022/10/27 09:59:59;;;;;;;7.85;1.50;;;;;;;22.64;82.48;101822.94;5076223;28;20043;-75
2022/10/27 10:02:29;;;;;;;4.95;0.98;;;;;;;22.70;81.54;101820.34;5077242;28;20056;-76
2022/10/27 10:04:57;;;;;;;5.25;1.10;;;;;;;22.66;77.75;101830.97;5048424;28;21091;-71
2022/10/27 10:07:49;;;;;;;3.67;1.20;;;;;;;22.80;77.67;101819.19;5075571;28;20056;-75
2022/10/27 10:10:21;;;;;;;5.93;1.65;;;;;;;22.99;78.71;101818.13;5075050;28;20056;-75
2022/10/27 10:13:01;;;;;;;5.20;1.20;;;;;;;23.06;77.37;101817.09;5082190;28;20411;-75
2022/10/27 10:15:29;;;;;;;2.42;1.13;;;;;;;23.20;77.19;101817.38;5085299;28;20423;-75
2022/10/27 10:18:01;;;;;;;2.88;0.90;;;;;;;23.18;70.77;101805.75;5071234;28;20059;-74
2022/10/27 10:20:31;;;;;;;5.38;1.23;;;;;;;23.27;73.27;101788.91;5081529;28;20074;-74
2022/10/27 10:22:59;;;;;;;4.15;0.70;;;;;;;23.42;70.56;101789.97;5079416;28;20047;-74
2022/10/27 10:25:29;;;;;;;2.30;0.50;;;;;;;23.28;69.96;101792.53;5078309;28;20500;-73
2022/10/27 10:28:05;;;;;;;2.92;0.88;;;;;;;23.48;71.39;101785.31;5074555;28;20050;-73
2022/10/27 10:30:37;;;;;;;2.08;0.80;;;;;;;23.70;69.30;101779.63;5074451;28;20055;-73
2022/10/27 10:33:06;;;;;;;5.65;0.70;;;;;;;23.73;67.05;101781.53;5077071;28;20052;-73
2022/10/27 10:35:47;;;;;;;4.43;1.17;;;;;;;23.93;68.29;101787.63;5069574;28;20729;-73
2022/10/27 10:38:23;;;;;;;4.68;1.10;;;;;;;23.85;67.67;101781.44;5071898;28;20379;-72
2022/10/27 10:41:10;;;;;;;7.57;1.20;;;;;;;24.02;66.89;101777.16;5080091;28;20482;-73
2022/10/27 10:43:39;;;;;;;3.65;1.45;;;;;;;24.21;69.41;101767.50;5077215;28;20966;-73
2022/10/27 10:46:31;;;;;;;6.18;1.63;;;;;;;24.43;66.04;101756.88;5080559;28;20052;-76
2022/10/27 10:48:59;;;;;;;6.65;1.30;;;;;;;24.60;68.53;101755.34;5062839;28;20075;-75
2022/10/27 10:51:25;;;;;;;4.00;1.17;;;;;;;24.76;64.65;101774.88;5074401;28;20618;-73
2022/10/27 10:54:02;;;;;;;3.70;1.02;;;;;;;24.87;65.76;101757.41;5079417;28;20858;-74
2022/10/27 10:56:32;;;;;;;6.72;1.60;;;;;;;24.95;65.19;101753.84;5075279;28;20047;-73
2022/10/27 10:59:08;;;;;;;3.40;1.20;;;;;;;25.22;63.78;101755.06;5079768;28;20044;-73
2022/10/27 11:01:38;;;;;;;7.07;1.45;;;;;;;25.46;64.16;101747.50;5072815;28;20047;-72
2022/10/27 11:04:05;;;;;;;8.57;1.80;;;;;;;25.59;64.82;101739.59;5077014;28;20534;-75
2022/10/27 11:06:32;;;;;;;13.27;2.30;;;;;;;25.94;65.03;101732.22;5072627;28;20075;-75
2022/10/27 11:09:03;;;;;;;5.80;1.00;;;;;;;25.85;61.11;101737.94;5073398;28;20131;-75
2022/10/27 11:11:46;;;;;;;4.40;1.20;;;;;;;25.95;61.42;101722.47;5079079;27;20055;-76
2022/10/27 11:14:15;;;;;;;9.90;1.55;;;;;;;25.96;63.68;101718.38;5075835;28;20863;-74
2022/10/27 11:16:50;;;;;;;8.98;1.48;;;;;;;25.91;59.70;101716.97;5069585;28;20200;-74
2022/10/27 11:19:19;;;;;;;4.32;1.30;;;;;;;25.83;60.05;101706.44;5052537;28;20070;-74
2022/10/27 11:21:53;;;;;;;9.93;1.40;;;;;;;26.01;61.51;101720.56;5070021;28;20126;-76
2022/10/27 11:24:38;;;;;;;9.35;2.03;;;;;;;26.48;60.71;101710.06;5074533;28;20048;-73
2022/10/27 11:27:14;;;;;;;16.85;2.05;;;;;;;26.35;57.11;101718.00;5083696;28;20796;-75
2022/10/27 11:30:02;;;;;;;7.65;2.00;;;;;;;26.59;59.75;101713.13;5074541;28;20191;-74